createdAt,value
2018-09-23T00:01:32.173Z,24.75
2018-09-23T00:04:00.707Z,24.45
2018-09-23T00:06:29.258Z,24.95
2018-09-23T00:08:58.299Z,24.52
2018-09-23T00:11:26.769Z,24.02
2018-09-23T00:13:55.316Z,24.82
2018-09-23T00:16:23.888Z,23.83
2018-09-23T00:18:52.411Z,25.50
2018-09-23T00:21:20.915Z,23.05
2018-09-23T00:23:49.463Z,22.87
2018-09-23T00:26:18.026Z,22.70
2018-09-23T00:28:46.554Z,22.60
2018-09-23T00:31:15.120Z,22.30
2018-09-23T00:33:43.646Z,23.27
2018-09-23T00:36:12.158Z,23.80
2018-09-23T00:38:40.717Z,23.20
2018-09-23T00:41:09.195Z,21.77
2018-09-23T00:43:37.763Z,21.52
2018-09-23T00:46:06.299Z,21.30
2018-09-23T00:48:34.872Z,21.40
2018-09-23T00:51:03.329Z,21.27
2018-09-23T00:53:31.825Z,21.73
2018-09-23T00:56:00.366Z,21.75
2018-09-23T00:58:28.844Z,19.95
2018-09-23T01:00:58.101Z,21.27
2018-09-23T01:03:27.187Z,20.80
2018-09-23T01:05:56.686Z,21.62
2018-09-23T01:08:25.210Z,21.07
2018-09-23T01:10:53.725Z,19.77
2018-09-23T01:13:22.669Z,21.68
2018-09-23T01:15:51.719Z,20.00
2018-09-23T01:18:20.241Z,20.02
2018-09-23T01:20:48.796Z,20.60
2018-09-23T01:23:17.306Z,19.52
2018-09-23T01:25:45.816Z,20.12
2018-09-23T01:28:14.323Z,21.35
2018-09-23T01:30:42.805Z,19.77
2018-09-23T01:33:11.334Z,21.20
2018-09-23T01:35:39.932Z,20.02
2018-09-23T01:38:08.458Z,20.10
2018-09-23T01:40:36.995Z,19.52
2018-09-23T01:43:05.523Z,18.02
2018-09-23T01:45:34.018Z,18.67
2018-09-23T01:48:02.568Z,18.42
2018-09-23T01:50:31.053Z,17.52
2018-09-23T01:52:59.614Z,18.07
2018-09-23T01:55:28.092Z,17.00
2018-09-23T01:57:56.583Z,17.23
2018-09-23T02:00:25.082Z,17.67
2018-09-23T02:02:53.613Z,16.10
2018-09-23T02:05:22.158Z,18.42
2018-09-23T02:07:50.843Z,16.77
2018-09-23T02:10:20.004Z,16.95
2018-09-23T02:12:49.130Z,16.80
2018-09-23T02:15:17.629Z,17.10
2018-09-23T02:17:46.158Z,16.23
2018-09-23T02:20:14.680Z,16.00
2018-09-23T02:22:43.173Z,15.90
2018-09-23T02:25:11.679Z,16.07
2018-09-23T02:27:40.241Z,15.20
2018-09-23T02:30:08.723Z,14.93
2018-09-23T02:32:43.436Z,15.55
2018-09-23T02:35:11.947Z,15.32
2018-09-23T02:37:40.512Z,16.32
2018-09-23T02:40:09.037Z,14.87
2018-09-23T02:42:37.521Z,14.78
2018-09-23T02:45:06.653Z,15.18
2018-09-23T02:47:35.376Z,14.60
2018-09-23T02:50:03.848Z,15.08
2018-09-23T02:52:32.368Z,14.23
2018-09-23T02:55:00.909Z,15.23
2018-09-23T02:57:29.390Z,14.38
2018-09-23T02:59:57.941Z,14.75
2018-09-23T03:02:26.479Z,15.95
2018-09-23T03:04:55.057Z,15.13
2018-09-23T03:07:23.631Z,14.60
2018-09-23T03:09:52.172Z,15.53
2018-09-23T03:12:20.689Z,15.55
2018-09-23T03:14:49.185Z,15.28
2018-09-23T03:17:18.838Z,14.85
2018-09-23T03:19:47.412Z,15.30
2018-09-23T03:22:15.904Z,15.32
2018-09-23T03:28:17.362Z,16.17
2018-09-23T03:30:45.908Z,16.95
2018-09-23T03:33:14.445Z,17.25
2018-09-23T03:35:42.942Z,17.65
2018-09-23T03:38:11.436Z,16.77
2018-09-23T03:40:39.939Z,17.17
2018-09-23T03:43:08.482Z,17.77
2018-09-23T03:45:36.974Z,18.15
2018-09-23T03:48:05.504Z,17.35
2018-09-23T03:50:34.064Z,16.52
2018-09-23T03:53:02.656Z,17.37
2018-09-23T03:55:31.174Z,17.45
2018-09-23T03:58:02.808Z,17.62
2018-09-23T04:00:31.321Z,17.70
2018-09-23T04:02:59.793Z,17.40
2018-09-23T04:05:28.305Z,16.80
2018-09-23T04:07:56.890Z,17.65
2018-09-23T04:10:25.414Z,17.82
2018-09-23T04:12:53.926Z,16.93
2018-09-23T04:15:22.423Z,17.23
2018-09-23T04:17:50.947Z,17.07
2018-09-23T04:20:19.465Z,17.12
2018-09-23T04:22:51.252Z,18.90
2018-09-23T04:25:21.050Z,17.55
2018-09-23T04:27:49.933Z,17.37
2018-09-23T04:30:20.078Z,17.92
2018-09-23T04:32:48.687Z,18.30
2018-09-23T04:35:17.752Z,17.50
2018-09-23T04:37:47.140Z,17.62
2018-09-23T04:40:16.552Z,19.37
2018-09-23T04:42:45.085Z,19.20
2018-09-23T04:45:13.621Z,18.98
2018-09-23T04:47:42.143Z,18.23
2018-09-23T04:50:10.709Z,18.57
2018-09-23T04:52:39.323Z,17.98
2018-09-23T04:55:07.910Z,17.55
2018-09-23T04:57:37.093Z,18.05
2018-09-23T05:00:05.649Z,17.80
2018-09-23T05:02:34.201Z,17.32
2018-09-23T05:05:02.768Z,18.87
2018-09-23T05:07:31.242Z,18.37
2018-09-23T05:09:59.935Z,18.62
2018-09-23T05:12:28.526Z,17.98
2018-09-23T05:14:57.381Z,18.12
2018-09-23T05:17:25.952Z,18.60
2018-09-23T05:19:54.484Z,18.02
2018-09-23T05:22:23.087Z,18.37
2018-09-23T05:24:51.602Z,17.95
2018-09-23T05:27:20.620Z,18.85
2018-09-23T05:29:49.707Z,21.85
2018-09-23T05:32:18.220Z,19.37
2018-09-23T05:34:47.429Z,18.27
2018-09-23T05:37:15.953Z,16.90
2018-09-23T05:39:44.556Z,16.97
2018-09-23T05:42:13.154Z,17.73
2018-09-23T05:44:41.705Z,16.93
2018-09-23T05:47:10.246Z,16.57
2018-09-23T05:49:38.808Z,17.80
2018-09-23T05:52:07.482Z,17.48
2018-09-23T05:54:36.012Z,17.17
2018-09-23T05:57:04.518Z,15.68
2018-09-23T05:59:33.023Z,15.90
2018-09-23T06:02:01.500Z,16.55
2018-09-23T06:04:30.041Z,16.27
2018-09-23T06:06:58.588Z,16.17
2018-09-23T06:09:27.101Z,15.72
2018-09-23T06:11:55.613Z,15.90
2018-09-23T06:14:24.135Z,15.18
2018-09-23T06:16:52.620Z,15.58
2018-09-23T06:19:21.195Z,14.73
2018-09-23T06:21:49.702Z,14.23
2018-09-23T06:24:18.297Z,14.60
2018-09-23T06:26:46.834Z,14.55
2018-09-23T06:29:15.366Z,14.83
2018-09-23T06:31:43.873Z,15.25
2018-09-23T06:34:12.425Z,14.28
2018-09-23T06:36:40.944Z,14.70
2018-09-23T06:39:10.259Z,14.63
2018-09-23T06:41:38.798Z,14.65
2018-09-23T06:44:07.312Z,14.47
2018-09-23T06:46:35.794Z,14.65
2018-09-23T06:49:04.297Z,15.03
2018-09-23T06:51:32.824Z,14.33
2018-09-23T06:54:01.379Z,13.75
2018-09-23T06:56:30.032Z,13.62
2018-09-23T06:58:58.543Z,13.83
2018-09-23T07:01:27.134Z,14.40
2018-09-23T07:03:55.646Z,13.65
2018-09-23T07:06:24.186Z,14.43
2018-09-23T07:08:52.703Z,14.47
2018-09-23T07:11:21.259Z,14.35
2018-09-23T07:13:49.816Z,12.73
2018-09-23T07:16:18.315Z,14.10
2018-09-23T07:18:46.845Z,13.72
2018-09-23T07:21:15.347Z,13.30
2018-09-23T07:23:43.905Z,13.80
2018-09-23T07:26:12.333Z,13.62
2018-09-23T07:28:40.854Z,14.50
2018-09-23T07:31:09.423Z,13.70
2018-09-23T07:33:37.963Z,12.78
2018-09-23T07:36:06.440Z,13.53
2018-09-23T07:38:34.954Z,12.98
2018-09-23T07:41:03.511Z,13.03
2018-09-23T07:43:31.994Z,13.58
2018-09-23T07:46:00.497Z,13.95
2018-09-23T07:48:30.102Z,13.22
2018-09-23T07:50:58.604Z,13.80
2018-09-23T07:53:27.368Z,13.28
2018-09-23T07:55:55.867Z,13.03
2018-09-23T07:58:24.388Z,12.82
2018-09-23T08:00:52.935Z,13.35
2018-09-23T08:03:21.481Z,12.75
2018-09-23T08:05:50.001Z,13.55
2018-09-23T08:08:18.514Z,12.18
2018-09-23T08:10:47.131Z,12.65
2018-09-23T08:13:15.794Z,12.65
2018-09-23T08:15:44.294Z,12.60
2018-09-23T08:18:12.850Z,11.85
2018-09-23T08:20:41.469Z,11.90
2018-09-23T08:23:10.073Z,12.07
2018-09-23T08:25:38.685Z,11.48
2018-09-23T08:28:07.111Z,11.70
2018-09-23T08:30:35.644Z,12.30
2018-09-23T08:33:04.241Z,13.18
2018-09-23T08:35:32.770Z,12.40
2018-09-23T08:38:01.316Z,12.30
2018-09-23T08:40:29.882Z,11.65
2018-09-23T08:42:58.436Z,11.40
2018-09-23T08:45:26.970Z,12.15
2018-09-23T08:47:55.507Z,12.63
2018-09-23T08:50:24.086Z,11.30
2018-09-23T08:52:52.682Z,11.95
2018-09-23T08:55:21.215Z,12.68
2018-09-23T08:57:49.815Z,12.88
2018-09-23T09:00:18.304Z,12.43
2018-09-23T09:02:46.826Z,12.25
2018-09-23T09:05:15.336Z,12.68
2018-09-23T09:07:43.848Z,12.55
2018-09-23T09:10:12.344Z,12.18
2018-09-23T09:12:40.838Z,12.55
2018-09-23T09:15:09.376Z,12.80
2018-09-23T09:17:37.954Z,11.75
2018-09-23T09:20:06.928Z,11.63
2018-09-23T09:22:35.767Z,11.95
2018-09-23T09:25:04.301Z,12.00
2018-09-23T09:27:32.818Z,11.93
2018-09-23T09:30:01.300Z,12.93
2018-09-23T09:32:29.790Z,11.78
2018-09-23T09:34:58.333Z,11.97
2018-09-23T09:37:26.813Z,11.97
2018-09-23T09:39:55.317Z,12.25
2018-09-23T09:42:23.907Z,12.07
2018-09-23T09:44:52.486Z,11.35
2018-09-23T09:47:21.008Z,12.53
2018-09-23T09:49:49.493Z,12.28
2018-09-23T09:52:18.014Z,12.00
2018-09-23T09:54:46.516Z,13.38
2018-09-23T09:57:15.107Z,12.63
2018-09-23T09:59:43.627Z,12.85
2018-09-23T10:02:12.178Z,13.03
2018-09-23T10:04:40.818Z,13.18
2018-09-23T10:07:09.351Z,12.95
2018-09-23T10:09:38.392Z,12.63
2018-09-23T10:12:06.919Z,11.90
2018-09-23T10:14:35.441Z,11.78
2018-09-23T10:17:03.968Z,12.50
2018-09-23T10:19:32.491Z,12.33
2018-09-23T10:22:01.591Z,11.78
2018-09-23T10:24:30.979Z,12.33
2018-09-23T10:26:59.488Z,12.98
2018-09-23T10:29:28.016Z,12.95
2018-09-23T10:31:56.505Z,12.05
2018-09-23T10:34:25.010Z,14.00
2018-09-23T10:36:53.543Z,12.50
2018-09-23T10:39:22.092Z,12.20
2018-09-23T10:41:50.691Z,12.78
2018-09-23T10:44:19.219Z,11.75
2018-09-23T10:46:47.726Z,11.93
2018-09-23T10:49:17.027Z,10.58
2018-09-23T10:51:45.571Z,12.60
2018-09-23T10:54:14.145Z,11.30
2018-09-23T10:56:42.634Z,10.48
2018-09-23T10:59:11.126Z,10.35
2018-09-23T11:01:39.659Z,9.73
2018-09-23T11:04:08.878Z,9.83
2018-09-23T11:06:37.429Z,10.15
2018-09-23T11:09:06.876Z,10.25
2018-09-23T11:11:35.405Z,10.23
2018-09-23T11:14:03.958Z,9.83
2018-09-23T11:16:32.482Z,10.35
2018-09-23T11:19:01.015Z,11.43
2018-09-23T11:21:29.555Z,11.83
2018-09-23T11:23:58.144Z,12.63
2018-09-23T11:26:26.661Z,12.88
2018-09-23T11:28:55.203Z,12.60
2018-09-23T11:31:23.706Z,11.95
2018-09-23T11:33:52.270Z,12.15
2018-09-23T11:36:20.822Z,12.40
2018-09-23T11:38:49.323Z,11.25
2018-09-23T11:41:18.811Z,9.60
2018-09-23T11:43:47.343Z,9.88
2018-09-23T11:46:15.855Z,10.35
2018-09-23T11:48:44.469Z,10.55
2018-09-23T11:51:12.999Z,11.28
2018-09-23T11:53:41.493Z,11.28
2018-09-23T11:56:10.038Z,12.53
2018-09-23T11:58:39.680Z,13.28
2018-09-23T12:01:08.458Z,12.90
2018-09-23T12:03:36.993Z,13.98
2018-09-23T12:06:05.553Z,15.18
2018-09-23T12:08:34.073Z,14.50
2018-09-23T12:11:02.715Z,15.13
2018-09-23T12:13:31.191Z,15.50
2018-09-23T12:15:59.732Z,16.10
2018-09-23T12:18:28.349Z,17.17
2018-09-23T12:20:56.829Z,19.48
2018-09-23T12:23:25.381Z,20.27
2018-09-23T12:25:53.939Z,20.60
2018-09-23T12:28:22.674Z,20.57
2018-09-23T12:30:51.258Z,20.23
2018-09-23T12:33:19.862Z,19.55
2018-09-23T12:35:48.361Z,20.70
2018-09-23T12:38:16.961Z,21.20
2018-09-23T12:40:45.509Z,20.72
2018-09-23T12:43:14.032Z,21.55
2018-09-23T12:45:42.539Z,22.62
2018-09-23T12:48:11.045Z,23.30
2018-09-23T12:50:39.666Z,23.40
2018-09-23T12:53:08.235Z,24.70
2018-09-23T12:55:37.968Z,22.62
2018-09-23T12:58:06.487Z,23.40
2018-09-23T13:00:35.062Z,22.00
2018-09-23T13:03:03.638Z,22.20
2018-09-23T13:05:32.206Z,21.35
2018-09-23T13:08:00.740Z,22.62
2018-09-23T13:10:29.261Z,22.87
2018-09-23T13:12:57.828Z,23.55
2018-09-23T13:15:26.314Z,23.83
2018-09-23T13:17:54.894Z,22.58
2018-09-23T13:20:23.416Z,22.73
2018-09-23T13:22:51.953Z,21.73
2018-09-23T13:25:20.447Z,21.70
2018-09-23T13:27:49.017Z,22.55
2018-09-23T13:30:17.607Z,22.35
2018-09-23T13:32:47.197Z,21.55
2018-09-23T13:35:15.994Z,21.68
2018-09-23T13:37:44.584Z,21.93
2018-09-23T13:40:13.139Z,19.95
2018-09-23T13:42:41.714Z,17.30
2018-09-23T13:45:10.298Z,17.00
2018-09-23T13:47:38.806Z,15.75
2018-09-23T13:50:07.357Z,13.48
2018-09-23T13:52:36.368Z,11.90
2018-09-23T13:55:04.987Z,11.73
2018-09-23T13:57:33.521Z,12.13
2018-09-23T14:00:02.081Z,12.30
2018-09-23T14:02:30.568Z,11.70
2018-09-23T14:04:59.079Z,10.88
2018-09-23T14:07:27.615Z,10.28
2018-09-23T14:09:56.175Z,9.53
2018-09-23T14:12:24.734Z,8.98
2018-09-23T14:14:53.273Z,8.50
2018-09-23T14:17:22.185Z,8.35
2018-09-23T14:19:50.796Z,7.85
2018-09-23T14:22:19.318Z,7.85
2018-09-23T14:24:47.886Z,7.22
2018-09-23T14:27:16.448Z,8.15
2018-09-23T14:29:45.019Z,7.92
2018-09-23T14:32:13.533Z,8.05
2018-09-23T14:34:42.115Z,9.23
2018-09-23T14:37:10.619Z,8.58
2018-09-23T14:39:39.179Z,9.80
2018-09-23T14:42:07.707Z,9.90
2018-09-23T14:44:36.799Z,10.50
2018-09-23T14:47:05.373Z,10.98
2018-09-23T14:49:33.929Z,11.05
2018-09-23T14:52:02.472Z,11.85
2018-09-23T14:54:31.065Z,12.50
2018-09-23T14:56:59.603Z,11.57
2018-09-23T14:59:31.418Z,10.98
2018-09-23T15:02:00.037Z,10.38
2018-09-23T15:04:28.558Z,9.33
2018-09-23T15:06:57.121Z,9.40
2018-09-23T15:09:25.701Z,7.40
2018-09-23T15:11:54.218Z,7.25
2018-09-23T15:14:22.768Z,6.92
2018-09-23T15:16:51.340Z,6.70
2018-09-23T15:19:19.967Z,6.30
2018-09-23T15:21:48.570Z,5.70
2018-09-23T15:24:17.085Z,5.17
2018-09-23T15:26:45.630Z,4.45
2018-09-23T15:29:14.201Z,3.90
2018-09-23T15:31:42.728Z,4.00
2018-09-23T15:34:11.226Z,3.75
2018-09-23T15:36:39.747Z,3.47
2018-09-23T15:39:08.784Z,3.60
2018-09-23T15:41:37.708Z,4.15
2018-09-23T15:44:06.426Z,3.37
2018-09-23T15:46:34.927Z,3.85
2018-09-23T15:49:03.561Z,3.80
2018-09-23T15:51:32.128Z,3.80
2018-09-23T15:54:00.685Z,4.42
2018-09-23T15:56:29.203Z,3.58
2018-09-23T15:58:57.691Z,3.58
2018-09-23T16:01:26.803Z,3.42
2018-09-23T16:03:55.332Z,3.83
2018-09-23T16:06:23.877Z,4.50
2018-09-23T16:08:52.397Z,3.90
2018-09-23T16:11:21.003Z,4.30
2018-09-23T16:13:49.547Z,4.53
2018-09-23T16:16:18.052Z,4.58
2018-09-23T16:18:46.674Z,4.70
2018-09-23T16:21:15.104Z,4.47
2018-09-23T16:23:43.732Z,4.62
2018-09-23T16:26:12.208Z,4.60
2018-09-23T16:28:40.750Z,4.90
2018-09-23T16:31:09.274Z,4.65
2018-09-23T16:33:37.758Z,4.90
2018-09-23T16:36:07.674Z,5.33
2018-09-23T16:38:37.016Z,5.37
2018-09-23T16:41:06.404Z,5.03
2018-09-23T16:43:34.985Z,5.15
2018-09-23T16:46:03.615Z,5.15
2018-09-23T16:48:32.120Z,5.47
2018-09-23T16:51:00.627Z,5.45
2018-09-23T16:53:29.198Z,5.83
2018-09-23T16:55:58.585Z,6.08
2018-09-23T16:58:27.069Z,6.25
2018-09-23T17:00:56.247Z,6.55
2018-09-23T17:03:24.758Z,6.15
2018-09-23T17:05:53.277Z,6.53
2018-09-23T17:08:21.844Z,6.72
2018-09-23T17:10:50.396Z,6.92
2018-09-23T17:13:18.974Z,6.95
2018-09-23T17:15:47.452Z,6.97
2018-09-23T17:18:15.973Z,7.97
2018-09-23T17:20:44.505Z,7.65
2018-09-23T17:23:13.024Z,7.40
2018-09-23T17:25:41.566Z,8.00
2018-09-23T17:28:10.140Z,8.08
2018-09-23T17:30:38.593Z,7.28
2018-09-23T17:33:07.078Z,7.30
2018-09-23T17:35:35.585Z,6.65
2018-09-23T17:38:04.086Z,6.42
2018-09-23T17:40:32.596Z,6.90
2018-09-23T17:43:01.146Z,5.87
2018-09-23T17:45:29.716Z,5.20
2018-09-23T17:47:58.270Z,5.65
2018-09-23T17:50:26.827Z,6.20
2018-09-23T17:52:55.365Z,5.35
2018-09-23T17:55:23.973Z,5.40
2018-09-23T17:57:52.472Z,5.00
2018-09-23T18:00:21.002Z,4.55
2018-09-23T18:02:49.489Z,4.85
2018-09-23T18:05:18.538Z,4.95
2018-09-23T18:07:47.028Z,4.72
2018-09-23T18:10:15.578Z,4.42
2018-09-23T18:12:44.109Z,4.42
2018-09-23T18:15:12.735Z,4.42
2018-09-23T18:17:41.211Z,5.55
2018-09-23T18:20:09.745Z,4.78
2018-09-23T18:22:38.262Z,4.70
2018-09-23T18:25:06.888Z,4.40
2018-09-23T18:27:35.471Z,4.70
2018-09-23T18:30:03.998Z,5.03
2018-09-23T18:32:32.537Z,4.78
2018-09-23T18:35:01.204Z,4.90
2018-09-23T18:37:29.929Z,5.22
2018-09-23T18:39:58.380Z,4.28
2018-09-23T18:42:26.917Z,4.37
2018-09-23T18:44:55.484Z,4.00
2018-09-23T18:47:24.044Z,3.55
2018-09-23T18:49:52.630Z,4.05
2018-09-23T18:52:21.202Z,4.12
2018-09-23T18:54:54.995Z,4.40
2018-09-23T18:57:23.479Z,4.12
2018-09-23T18:59:52.044Z,3.87
2018-09-23T19:02:20.564Z,3.60
2018-09-23T19:04:49.130Z,3.75
2018-09-23T19:07:17.686Z,3.80
2018-09-23T19:09:46.233Z,3.60
2018-09-23T19:12:14.742Z,3.65
2018-09-23T19:14:43.276Z,3.92
2018-09-23T19:17:11.776Z,3.20
2018-09-23T19:19:45.720Z,3.10
2018-09-23T19:22:19.704Z,3.55
2018-09-23T19:24:48.284Z,2.92
2018-09-23T19:27:16.745Z,2.72
2018-09-23T19:29:45.305Z,3.10
2018-09-23T19:32:13.792Z,3.00
2018-09-23T19:34:42.351Z,3.60
2018-09-23T19:37:10.918Z,3.72
2018-09-23T19:39:39.514Z,3.45
2018-09-23T19:42:08.189Z,3.65
2018-09-23T19:44:36.710Z,4.20
2018-09-23T19:47:05.225Z,4.10
2018-09-23T19:49:34.667Z,3.90
2018-09-23T19:52:03.181Z,4.00
2018-09-23T19:54:31.739Z,4.25
2018-09-23T19:57:00.261Z,4.30
2018-09-23T19:59:28.770Z,4.58
2018-09-23T20:01:57.277Z,3.92
2018-09-23T20:04:25.799Z,4.08
2018-09-23T20:06:54.351Z,4.28
2018-09-23T20:09:22.875Z,4.17
2018-09-23T20:11:51.374Z,4.60
2018-09-23T20:14:19.921Z,4.28
2018-09-23T20:16:48.415Z,4.22
2018-09-23T20:19:17.039Z,4.08
2018-09-23T20:21:45.514Z,4.50
2018-09-23T20:24:14.054Z,4.10
2018-09-23T20:26:42.603Z,4.17
2018-09-23T20:29:13.872Z,3.95
2018-09-23T20:31:42.362Z,3.85
2018-09-23T20:34:10.922Z,4.45
2018-09-23T20:36:39.414Z,4.53
2018-09-23T20:39:09.310Z,4.15
2018-09-23T20:41:37.795Z,3.83
2018-09-23T20:44:06.330Z,3.67
2018-09-23T20:46:34.849Z,3.60
2018-09-23T20:49:03.425Z,3.40
2018-09-23T20:51:31.903Z,3.17
2018-09-23T20:54:00.426Z,3.27
2018-09-23T20:56:28.921Z,3.98
2018-09-23T20:58:57.424Z,3.77
2018-09-23T21:01:25.886Z,3.80
2018-09-23T21:03:54.436Z,3.12
2018-09-23T21:06:22.972Z,3.77
2018-09-23T21:08:51.435Z,3.50
2018-09-23T21:11:19.960Z,3.37
2018-09-23T21:14:19.213Z,3.95
2018-09-23T21:16:47.703Z,3.35
2018-09-23T21:19:16.155Z,3.47
2018-09-23T21:21:45.280Z,3.22
2018-09-23T21:24:13.834Z,3.12
2018-09-23T21:26:42.355Z,3.20
2018-09-23T21:29:10.847Z,3.37
2018-09-23T21:31:39.384Z,3.30
2018-09-23T21:34:07.940Z,3.27
2018-09-23T21:36:36.437Z,3.20
2018-09-23T21:39:06.655Z,3.10
2018-09-23T21:41:35.175Z,2.98
2018-09-23T21:44:03.669Z,3.60
2018-09-23T21:46:32.200Z,3.17
2018-09-23T21:49:00.756Z,3.00
2018-09-23T21:51:29.557Z,3.15
2018-09-23T21:53:58.347Z,3.72
2018-09-23T21:56:27.249Z,2.92
2018-09-23T21:58:55.791Z,2.60
2018-09-23T22:01:24.306Z,3.17
2018-09-23T22:03:52.862Z,2.80
2018-09-23T22:06:21.355Z,3.47
2018-09-23T22:08:49.887Z,3.40
2018-09-23T22:11:18.401Z,2.77
2018-09-23T22:13:46.889Z,2.40
2018-09-23T22:16:15.356Z,2.98
2018-09-23T22:18:43.846Z,2.98
2018-09-23T22:21:12.365Z,2.90
2018-09-23T22:23:40.872Z,3.30
2018-09-23T22:26:09.358Z,3.20
2018-09-23T22:28:37.906Z,2.70
2018-09-23T22:31:06.622Z,2.92
2018-09-23T22:33:35.160Z,2.45
2018-09-23T22:36:03.628Z,2.95
2018-09-23T22:38:32.101Z,2.70
2018-09-23T22:41:00.662Z,2.55
2018-09-23T22:43:29.245Z,2.52
2018-09-23T22:45:57.786Z,2.25
2018-09-23T22:48:26.261Z,2.45
2018-09-23T22:50:54.766Z,2.60
2018-09-23T22:53:23.323Z,2.70
2018-09-23T22:55:52.458Z,2.65
2018-09-23T22:58:20.981Z,2.62
2018-09-23T23:00:49.572Z,1.98
2018-09-23T23:03:18.147Z,2.02
2018-09-23T23:05:46.631Z,2.65
2018-09-23T23:08:15.141Z,2.37
2018-09-23T23:10:43.712Z,1.67
2018-09-23T23:13:12.269Z,2.10
2018-09-23T23:15:40.744Z,1.90
2018-09-23T23:18:09.911Z,2.02
2018-09-23T23:20:38.444Z,2.37
2018-09-23T23:23:06.997Z,2.02
2018-09-23T23:25:35.521Z,2.20
2018-09-23T23:28:04.001Z,2.52
2018-09-23T23:30:32.489Z,1.87
2018-09-23T23:33:00.994Z,2.30
2018-09-23T23:35:29.485Z,2.52
2018-09-23T23:37:57.969Z,2.75
2018-09-23T23:40:26.465Z,1.90
2018-09-23T23:42:55.026Z,2.30
2018-09-23T23:45:23.566Z,2.35
2018-09-23T23:47:52.050Z,2.02
2018-09-23T23:50:21.500Z,2.37
2018-09-23T23:52:50.078Z,1.90
2018-09-23T23:55:18.591Z,2.20
2018-09-23T23:57:47.077Z,2.70
